Terminal Aerodrome Forecast
Issued by NWS Buffalo, NY

Home | Current Version | Previous Version | Text Only | Print | Product List | Glossary On
Versions: 1 2 3 4 5 6 7 8 9 10 11 12 13 14 15 16 17 18 19 20 21 22 23 24 25 26 27 28 29
554
FTUS41 KBUF 032328
TAFART
TAF
KART 032328Z 0400/0424 22005KT P6SM BKN060
     FM040300 VRB03KT P6SM SCT060
     FM041200 VRB03KT P6SM OVC035
     FM041600 04005KT P6SM VCSH OVC035=

USA.gov is the U.S. government's official web portal to all federal, state and local government web resources and services.